Home > Products > Valid Products > TAF

000
FTUS44 KBMX 191700 CCA
TAFMGM
TAF COR
KMGM 191748Z 1918/2018 03004KT P6SM OVC120
     FM192100 03004KT P6SM OVC050
     FM200000 03004KT 5SM -RA BKN025
     FM200400 03003KT 3SM -RA OVC012
     FM201400 03004KT P6SM OVC020=



000
FTUS44 KBMX 191700 CCA
TAFTOI
TAF COR
KTOI 191747Z 1918/2018 03004KT P6SM OVC120
     FM192100 03004KT P6SM OVC050
     FM200000 03004KT 5SM -RA BKN035
     FM200400 03003KT 3SM -RA OVC010
     FM201500 03004KT P6SM OVC015=



000
FTUS44 KBMX 191700
TAFTCL
TAF
KTCL 191724Z 1918/2018 03004KT P6SM BKN120
     FM200200 02003KT 6SM -RA OVC050
     FM200600 02003KT 5SM -RA OVC035
     FM201100 02003KT P6SM OVC035=



000
FTUS44 KBMX 191700
TAFTOI
TAF
KTOI 191724Z 1918/2018 03004KT P6SM OVC120
     FM192100 03004KT P6SM OVC050
     FM200000 03004KT 5SM -RA BKN035
     FM200400 03003KT 3SM -RA OVC015
     FM201400 03004KT P6SM OVC020=



000
FTUS44 KBMX 191700
TAFBHM
TAF
KBHM 191724Z 1918/2018 02005KT P6SM BKN120
     FM200200 02003KT 6SM -RA OVC050
     FM200600 02003KT 5SM -RA OVC035
     FM201200 02003KT P6SM OVC035=



000
FTUS44 KBMX 191700
TAFEET
TAF
KEET 191724Z 1918/2018 02005KT P6SM BKN120
     FM200200 02003KT 6SM -RA OVC050
     FM200600 02003KT 5SM -RA OVC035
     FM201200 02003KT P6SM OVC035=



000
FTUS44 KBMX 191700
TAFANB
TAF
KANB 191724Z 1918/2018 02003KT P6SM BKN250
     FM200400 02003KT 6SM -RA OVC050
     FM200800 02003KT 5SM -RA OVC035
     FM201300 02003KT P6SM OVC035=



000
FTUS44 KBMX 191700
TAFMGM
TAF
KMGM 191724Z 1918/2018 03004KT P6SM OVC120
     FM192100 03004KT P6SM OVC050
     FM200000 03004KT 5SM -RA BKN025
     FM200400 03003KT 3SM -RA OVC010
     FM201500 03004KT P6SM OVC015=



000
FTUS44 KBMX 191100 RRA
TAFTOI
TAF
KTOI 191143Z 1912/2012 03004KT P6SM SCT030 OVC200
     FM191800 VRB04KT P6SM VCSH BKN035 OVC050
     FM192200 03005KT 4SM RA BKN025 OVC050=



000
FTUS44 KBMX 191100 RRA
TAFANB
TAF
KANB 191143Z 1912/2012 00000KT 6SM BR BKN200
     FM191300 03005KT P6SM SCT035 OVC200
     FM192100 36005KT P6SM VCSH BKN035 OVC050
     FM200200 02005KT 4SM RA BKN025 OVC050=



000
FTUS44 KBMX 191100 RRA
TAFTCL
TAF
KTCL 191143Z 1912/2012 02005KT P6SM BKN035 OVC100
     FM191900 36005KT P6SM VCSH BKN035 OVC050
     FM192200 01005KT 4SM RA OVC025=



000
FTUS44 KBMX 191100 RRA
TAFMGM
TAF
KMGM 191143Z 1912/2012 03004KT P6SM SCT030 OVC200
     FM191900 VRB04KT P6SM VCSH BKN035 OVC050
     FM192200 03005KT 4SM RA BKN025 OVC050=



000
FTUS44 KBMX 191100 RRA
TAFBHM
TAF
KBHM 191143Z 1912/2012 02005KT P6SM BKN035 BKN200
     FM192000 36005KT P6SM VCSH BKN035 OVC050
     FM200000 01005KT 4SM RA BKN025=



000
FTUS44 KBMX 191100 RRA
TAFEET
TAF
KEET 191143Z 1912/2012 02005KT P6SM BKN035 BKN200
     FM192000 36005KT P6SM VCSH BKN035 OVC050
     FM200000 01005KT 4SM RA OVC025=



000
FTUS44 KBMX 191000 AAA
TAFTOI
TAF AMD
KTOI 191017Z 1910/2006 01004KT P6SM SCT030 OVC200
     FM191500 04005KT P6SM VCSH BKN035 OVC050
     FM192000 02007KT 4SM RA BKN035 OVC050=



000
FTUS44 KBMX 191000 AAA
TAFTOI
TAF AMD
KTOI 191017Z 1910/2006 01004KT P6SM SCT030 OVC200
     FM191500 04005KT P6SM VCSH BKN035 OVC050
     FM192000 02007KT 4SM RA BKN035 OVC050=



000
FTUS44 KBMX 191000 AAA
TAFMGM
TAF AMD
KMGM 191016Z 1910/2006 01004KT P6SM SCT030 OVC200
     FM191600 04005KT P6SM VCSH BKN035 OVC050
     FM192000 02007KT 4SM RA BKN035 OVC050=



000
FTUS44 KBMX 191000 AAA
TAFMGM
TAF AMD
KMGM 191016Z 1910/2006 01004KT P6SM SCT030 OVC200
     FM191600 04005KT P6SM VCSH BKN035 OVC050
     FM192000 02007KT 4SM RA BKN035 OVC050=



000
FTUS44 KBMX 190500
TAFMGM
TAF
KMGM 190529Z 1906/2006 33002KT P6SM SCT035 SCT100 BKN250
     FM190900 01004KT P6SM BKN030
     FM191600 04005KT P6SM VCSH BKN035 OVC050
     FM192000 02007KT 4SM RA BKN035 OVC050=



000
FTUS44 KBMX 190500
TAFTOI
TAF
KTOI 190529Z 1906/2006 33002KT P6SM BKN035 BKN250
     FM190900 01004KT P6SM BKN030
     FM191500 04005KT P6SM VCSH BKN035 OVC050
     FM192000 02007KT 4SM RA BKN035 OVC050=



000
FTUS44 KBMX 190500
TAFTCL
TAF
KTCL 190529Z 1906/2006 00000KT P6SM SCT100 BKN250
     FM191500 02005KT P6SM SCT035 BKN100
     FM191900 36005KT P6SM VCSH SCT035 OVC050
     FM192300 36005KT 4SM RA BKN035 OVC050=



000
FTUS44 KBMX 190500
TAFANB
TAF
KANB 190529Z 1906/2006 00000KT 4SM BR SCT035 SCT100
     FM191400 02005KT P6SM SCT035 BKN150
     FM200100 36005KT P6SM VCSH SCT035 OVC050
     FM200300 36005KT 4SM RA BKN035 OVC050=



000
FTUS44 KBMX 190500
TAFBHM
TAF
KBHM 190529Z 1906/2006 00000KT P6SM SCT100 BKN250
     FM191500 02005KT P6SM SCT035 BKN100
     FM192100 36005KT P6SM VCSH SCT035 OVC050
     FM200200 36005KT 4SM RA BKN035 OVC050=



000
FTUS44 KBMX 190500
TAFEET
TAF
KEET 190529Z 1906/2006 00000KT P6SM SCT100 BKN250
     FM191500 02005KT P6SM SCT035 BKN100
     FM192000 36005KT P6SM VCSH SCT035 OVC050
     FM200300 36005KT 4SM RA BKN035 OVC050=



000
FTUS44 KBMX 182300
TAFBHM
TAF
KBHM 182320Z 1900/1924 34005KT P6SM BKN050
     FM190300 00000KT P6SM SCT100 BKN250
     FM191500 02005KT P6SM SCT035 BKN100
     FM192100 36005KT P6SM VCSH SCT035 OVC050=



000
FTUS44 KBMX 182300
TAFEET
TAF
KEET 182320Z 1900/1924 36004KT P6SM BKN080
     FM190400 00000KT P6SM SCT035 SCT100 BKN250
     FM191500 02005KT P6SM SCT035 BKN100
     FM192000 36005KT P6SM VCSH SCT035 OVC050=



000
FTUS44 KBMX 182300
TAFTOI
TAF
KTOI 182320Z 1900/1924 36004KT P6SM BKN100
     FM190500 33002KT P6SM SCT100 BKN250
     FM190900 01004KT P6SM BKN030
     FM191500 04005KT P6SM VCSH BKN035 OVC050
     FM192000 02007KT 4SM RA BKN035 OVC050=



000
FTUS44 KBMX 182300
TAFANB
TAF
KANB 182320Z 1900/1924 06004KT P6SM BKN050
     FM190300 00000KT P6SM SCT035 SCT100 BKN250
     FM191500 02005KT P6SM SCT035 BKN150
     FM192100 36005KT P6SM VCSH SCT035 OVC050=



000
FTUS44 KBMX 182300
TAFMGM
TAF
KMGM 182320Z 1900/1924 36004KT P6SM BKN100
     FM190500 33002KT P6SM SCT100 BKN250
     FM190900 01004KT P6SM BKN030
     FM191600 04005KT P6SM VCSH BKN035 OVC050
     FM192100 02007KT 4SM RA BKN035 OVC050=



000
FTUS44 KBMX 182300
TAFTCL
TAF
KTCL 182320Z 1900/1924 33003KT P6SM BKN050
     FM190300 00000KT P6SM SCT035 SCT100 BKN250
     FM191500 02005KT P6SM SCT035 BKN100
     FM191800 36005KT P6SM VCSH SCT035 OVC050
     FM192100 36005KT 4SM SHRA BKN035 OVC050=



000
FTUS44 KBMX 181700
TAFANB
TAF
KANB 181730Z 1818/1918 06004KT P6SM BKN050
     FM190000 00000KT P6SM SCT035 SCT100 BKN250
     FM191500 02005KT P6SM SCT035 BKN150=



000
FTUS44 KBMX 181700
TAFBHM
TAF
KBHM 181730Z 1818/1918 34005KT P6SM BKN050
     FM190000 00000KT P6SM SCT100 BKN250
     FM191500 02005KT P6SM SCT035 BKN100=



000
FTUS44 KBMX 181700
TAFEET
TAF
KEET 181730Z 1818/1918 36004KT P6SM BKN080
     FM190000 00000KT P6SM SCT035 SCT100 BKN250
     FM191500 02005KT P6SM SCT035 BKN100=



000
FTUS44 KBMX 181700
TAFMGM
TAF
KMGM 181730Z 1818/1918 36004KT P6SM BKN100
     FM190300 33002KT P6SM SCT100 BKN250
     FM190900 01004KT P6SM BKN030
     FM191500 02005KT P6SM BKN035 BKN100=



000
FTUS44 KBMX 181700
TAFTCL
TAF
KTCL 181730Z 1818/1918 33003KT P6SM BKN050
     FM190000 00000KT P6SM SCT035 SCT100 BKN250
     FM191500 02005KT P6SM SCT035 BKN100=



000
FTUS44 KBMX 181700
TAFTOI
TAF
KTOI 181730Z 1818/1918 36004KT P6SM BKN100
     FM190300 33002KT P6SM SCT100 BKN250
     FM190900 01004KT P6SM BKN030
     FM191500 02005KT P6SM BKN035 BKN100=



000
FTUS44 KBMX 181100
TAFTCL
TAF
KTCL 181127Z 1812/1912 01004KT P6SM OVC080
     FM190000 00000KT P6SM SCT100 BKN250=



000
FTUS44 KBMX 181100
TAFEET
TAF
KEET 181127Z 1812/1912 36004KT P6SM BKN080
     FM190000 00000KT P6SM SCT100 BKN250=



000
FTUS44 KBMX 181100
TAFTOI
TAF
KTOI 181127Z 1812/1912 36004KT P6SM BKN100
     FM190000 00000KT P6SM SCT100 BKN250=



000
FTUS44 KBMX 181100
TAFMGM
TAF
KMGM 181127Z 1812/1912 36004KT P6SM BKN100
     FM190300 33002KT P6SM SCT100 BKN250=



000
FTUS44 KBMX 181100
TAFANB
TAF
KANB 181127Z 1812/1912 VRB04KT P6SM BKN080
     FM190000 00000KT P6SM SCT100 BKN250=



000
FTUS44 KBMX 181100
TAFBHM
TAF
KBHM 181127Z 1812/1912 01004KT P6SM BKN080
     FM190000 00000KT P6SM SCT100 BKN250=



000
FTUS44 KBMX 181000 AAA
TAFTOI
TAF AMD
KTOI 181014Z 1810/1906 00000KT 4SM BR BKN250
     FM181400 36004KT P6SM OVC100
     FM190300 00000KT P6SM SCT100 BKN250=



000
FTUS44 KBMX 181000 AAA
TAFANB
TAF AMD
KANB 181003Z 1810/1906 00000KT 4SM BR BKN250
     FM181400 03004KT P6SM OVC080
     FM190000 00000KT P6SM SCT100 BKN250=



000
FTUS44 KBMX 180500
TAFMGM
TAF
KMGM 180520Z 1806/1906 00000KT P6SM BKN250
     FM181500 35004KT P6SM OVC100
     FM190300 00000KT P6SM SCT100 BKN250=



000
FTUS44 KBMX 180500
TAFEET
TAF
KEET 180520Z 1806/1906 00000KT P6SM BKN250
     FM181400 01004KT P6SM OVC080
     FM190000 00000KT P6SM SCT100 BKN250=



000
FTUS44 KBMX 180500
TAFBHM
TAF
KBHM 180520Z 1806/1906 00000KT P6SM BKN250
     FM181400 01004KT P6SM OVC080
     FM190000 00000KT P6SM SCT100 BKN250=



000
FTUS44 KBMX 180500
TAFTCL
TAF
KTCL 180520Z 1806/1906 00000KT P6SM BKN250
     FM181400 01004KT P6SM OVC080
     FM190000 00000KT P6SM SCT100 BKN250=



000
FTUS44 KBMX 180500
TAFTOI
TAF
KTOI 180520Z 1806/1906 00000KT P6SM BKN250
     FM181500 36004KT P6SM OVC100
     FM190300 00000KT P6SM SCT100 BKN250=



000
FTUS44 KBMX 180500
TAFANB
TAF
KANB 180520Z 1806/1906 00000KT P6SM BKN250
     FM181500 03004KT P6SM OVC080
     FM190000 00000KT P6SM SCT100 BKN250=



000
FTUS44 KBMX 172300
TAFTCL
TAF
KTCL 172320Z 1800/1824 00000KT P6SM BKN250
     FM181400 01004KT P6SM OVC080=



000
FTUS44 KBMX 172300
TAFBHM
TAF
KBHM 172320Z 1800/1824 00000KT P6SM SCT025 BKN250
     FM181400 01004KT P6SM OVC080=



000
FTUS44 KBMX 172300
TAFMGM
TAF
KMGM 172320Z 1800/1824 32006KT P6SM SCT250
     FM180300 00000KT P6SM BKN250
     FM181500 35004KT P6SM OVC100=



000
FTUS44 KBMX 172300
TAFANB
TAF
KANB 172320Z 1800/1824 00000KT P6SM BKN250
     FM181500 03004KT P6SM OVC080=



000
FTUS44 KBMX 172300
TAFTOI
TAF
KTOI 172320Z 1800/1824 32006KT P6SM SCT250
     FM180300 00000KT P6SM BKN250
     FM181500 36004KT P6SM OVC100=



000
FTUS44 KBMX 172300
TAFEET
TAF
KEET 172320Z 1800/1824 00000KT P6SM BKN250
     FM181400 01004KT P6SM OVC080=



000
FTUS44 KBMX 172000 AAA
TAFEET
TAF AMD
KEET 172051Z 1721/1818 34004KT P6SM SCT018
     FM180000 00000KT P6SM SCT250
     FM181400 01004KT P6SM OVC080=



000
FTUS44 KBMX 172000 AAA
TAFTCL
TAF AMD
KTCL 172009Z 1720/1818 02005KT P6SM SCT250
     FM180000 00000KT P6SM SCT250
     FM181400 01004KT P6SM OVC080=



000
FTUS44 KBMX 171700
TAFTCL
TAF
KTCL 171720Z 1718/1818 36005KT P6SM OVC020
     FM172100 00000KT P6SM SCT250
     FM181400 01004KT P6SM OVC080=



000
FTUS44 KBMX 171700
TAFANB
TAF
KANB 171720Z 1718/1818 29004KT P6SM OVC018
     FM172100 34004KT P6SM SCT250
     FM181500 03004KT P6SM OVC080=



000
FTUS44 KBMX 171700
TAFEET
TAF
KEET 171720Z 1718/1818 36004KT P6SM OVC015
     FM172200 00000KT P6SM SCT250
     FM181400 01004KT P6SM OVC080=



000
FTUS44 KBMX 171700
TAFTOI
TAF
KTOI 171720Z 1718/1818 34005KT P6SM SCT250
     FM172300 00000KT P6SM BKN250
     FM181500 36004KT P6SM OVC100=



000
FTUS44 KBMX 171700
TAFBHM
TAF
KBHM 171720Z 1718/1818 36005KT P6SM OVC015
     FM172300 00000KT P6SM SCT250
     FM181400 01004KT P6SM OVC080=



000
FTUS44 KBMX 171700
TAFMGM
TAF
KMGM 171720Z 1718/1818 32005KT P6SM SCT250
     FM172300 00000KT P6SM BKN250
     FM181500 35004KT P6SM OVC100=



000
FTUS44 KBMX 171600 AAB
TAFTCL
TAF AMD
KTCL 171601Z 1716/1812 00000KT P6SM BKN022
     FM172000 34006KT P6SM SCT250
     FM180300 00000KT P6SM BKN250=



000
FTUS44 KBMX 171600 AAB
TAFTCL
TAF AMD
KTCL 171601Z 1716/1812 00000KT P6SM BKN022
     FM172000 34006KT P6SM SCT250
     FM180300 00000KT P6SM BKN250=



000
FTUS44 KBMX 171500 AAB
TAFEET
TAF AMD
KEET 171532Z 1716/1812 34003KT P6SM OVC015
     FM172000 32005KT P6SM SCT250
     FM180200 00000KT P6SM BKN250=



000
FTUS44 KBMX 171500 AAB
TAFANB
TAF AMD
KANB 171532Z 1716/1812 33003KT P6SM OVC018
     FM172000 32006KT P6SM SCT250
     FM180100 00000KT P6SM BKN250=



000
FTUS44 KBMX 171500 AAC
TAFBHM
TAF AMD
KBHM 171532Z 1716/1812 36005KT P6SM OVC015
     FM172100 34007KT P6SM SCT250
     FM180000 00000KT P6SM BKN250=



000
FTUS44 KBMX 171500 AAB
TAFBHM
TAF AMD
KBHM 171501Z 1715/1812 36005KT P6SM OVC015
     FM171800 34007KT P6SM SCT250
     FM180000 00000KT P6SM BKN250=



000
FTUS44 KBMX 171500 AAA
TAFEET
TAF AMD
KEET 171501Z 1715/1812 34003KT P6SM OVC015
     FM171800 32005KT P6SM SCT250
     FM180200 00000KT P6SM BKN250=



000
FTUS44 KBMX 171500 AAA
TAFANB
TAF AMD
KANB 171501Z 1715/1812 33003KT P6SM OVC018
     FM171800 32006KT P6SM SCT250
     FM180100 00000KT P6SM BKN250=



000
FTUS44 KBMX 171500 AAA
TAFBHM
TAF AMD
KBHM 171500Z 1715/1812 00000KT P6SM OVC015
     FM171800 34007KT P6SM SCT250
     FM180000 00000KT P6SM BKN250=



000
FTUS44 KBMX 171400 AAA
TAFTCL
TAF AMD
KTCL 171416Z 1714/1812 00000KT P6SM BKN022
     FM171600 34006KT P6SM SCT250
     FM180300 00000KT P6SM BKN250=



000
FTUS44 KBMX 171100 RRA
TAFANB
TAF
KANB 171139Z 1712/1812 00000KT P6SM OVC016
     FM171500 33003KT P6SM SCT025 BKN250
     FM171800 32006KT P6SM SCT250
     FM180100 00000KT P6SM BKN250=



000
FTUS44 KBMX 171100 RRA
TAFBHM
TAF
KBHM 171139Z 1712/1812 00000KT P6SM OVC016
     FM171500 34007KT P6SM SCT250
     FM180000 00000KT P6SM BKN250=



000
FTUS44 KBMX 171100 RRA
TAFTCL
TAF
KTCL 171139Z 1712/1812 00000KT P6SM SKC
     FM171600 34006KT P6SM SCT250
     FM180300 00000KT P6SM BKN250=



000
FTUS44 KBMX 171100 RRA
TAFTOI
TAF
KTOI 171139Z 1712/1812 00000KT P6SM SKC
     FM171800 32005KT P6SM SCT250
     FM180600 00000KT P6SM SCT250=



000
FTUS44 KBMX 171100 RRA
TAFMGM
TAF
KMGM 171139Z 1712/1812 00000KT P6SM SKC
     FM171800 32005KT P6SM SCT250
     FM180600 00000KT P6SM BKN250=



000
FTUS44 KBMX 171100 RRA
TAFEET
TAF
KEET 171139Z 1712/1812 00000KT P6SM SKC
      TEMPO 1712/1715 BKN018
     FM171500 34003KT P6SM SCT025
     FM171800 32005KT P6SM SCT250
     FM180200 00000KT P6SM BKN250=



000
FTUS44 KBMX 170900 AAA
TAFANB
TAF AMD
KANB 170951Z 1710/1806 00000KT 5SM BR OVC018
     FM171600 35005KT P6SM SCT250
     FM180300 00000KT P6SM BKN250=



000
FTUS44 KBMX 170900 AAA
TAFANB
TAF AMD
KANB 170951Z 1710/1806 00000KT 5SM BR OVC018
     FM171600 35005KT P6SM SCT250
     FM180300 00000KT P6SM BKN250=



000
FTUS44 KBMX 170900 AAA
TAFEET
TAF AMD
KEET 170925Z 1709/1806 00000KT P6SM SKC
     FM171500 34003KT P6SM SCT025
     FM171800 32005KT P6SM SCT250
     FM180100 00000KT P6SM SCT250=



000
FTUS44 KBMX 170900 AAA
TAFTCL
TAF AMD
KTCL 170923Z 1709/1806 00000KT P6SM SKC
     FM171600 34006KT P6SM SCT250
     FM180300 00000KT P6SM BKN250=



000
FTUS44 KBMX 170900 AAA
TAFTCL
TAF AMD
KTCL 170923Z 1709/1806 00000KT P6SM SKC
     FM171600 34006KT P6SM SCT250
     FM180300 00000KT P6SM BKN250=



000
FTUS44 KBMX 170900 AAA
TAFBHM
TAF AMD
KBHM 170918Z 1709/1806 00000KT P6SM SKC
     FM171030 01003KT 5SM BR OVC015
     FM171600 33007KT P6SM SCT250
     FM180300 00000KT P6SM BKN250=



000
FTUS44 KBMX 170900 AAA
TAFBHM
TAF AMD
KBHM 170918Z 1709/1806 00000KT P6SM SKC
     FM171030 01003KT 5SM BR OVC015
     FM171600 33007KT P6SM SCT250
     FM180300 00000KT P6SM BKN250=



000
FTUS44 KBMX 170500
TAFEET
TAF
KEET 170520Z 1706/1806 00000KT P6SM SKC
     FM171100 01003KT 5SM BR OVC025
     FM171600 33005KT P6SM SCT250
     FM180100 00000KT P6SM SCT250=



000
FTUS44 KBMX 170500
TAFMGM
TAF
KMGM 170520Z 1706/1806 30004KT P6SM SKC
     FM171800 32006KT P6SM SKC
     FM180300 00000KT P6SM SKC=



000
FTUS44 KBMX 170500
TAFTOI
TAF
KTOI 170520Z 1706/1806 33004KT P6SM SKC
     FM171800 33006KT P6SM SKC
     FM180300 00000KT P6SM SKC=



000
FTUS44 KBMX 170500
TAFTCL
TAF
KTCL 170520Z 1706/1806 00000KT P6SM SKC
     FM171100 01003KT 5SM BR OVC025
     FM171700 34007KT P6SM SCT250
     FM180300 00000KT P6SM BKN250=



000
FTUS44 KBMX 170500
TAFBHM
TAF
KBHM 170520Z 1706/1806 00000KT P6SM SKC
     FM170900 01003KT 5SM BR OVC025
     FM171600 33007KT P6SM SCT250
     FM180300 00000KT P6SM BKN250=



000
FTUS44 KBMX 170500
TAFANB
TAF
KANB 170520Z 1706/1806 27003KT P6SM SKC
     FM170900 01003KT 5SM BR OVC020
     FM171600 35005KT P6SM SCT250
     FM180300 00000KT P6SM BKN250=



000
FTUS44 KBMX 170300 AAB
TAFANB
TAF AMD
KANB 170350Z 1704/1724 31003KT P6SM SCT025
     FM170800 01003KT 5SM BR BKN025
     FM171800 33005KT P6SM SCT250=



000
FTUS44 KBMX 170300 AAB
TAFANB
TAF AMD
KANB 170350Z 1704/1724 31003KT P6SM SCT025
     FM170800 01003KT 5SM BR BKN025
     FM171800 33005KT P6SM SCT250=



000
FTUS44 KBMX 170200 AAA
TAFANB
TAF AMD
KANB 170219Z 1702/1724 31003KT P6SM SCT045
      TEMPO 1702/1705 BKN025
     FM170800 01003KT 5SM BR BKN025
     FM171800 33005KT P6SM SCT250=



000
FTUS44 KBMX 162300 CCA
TAFANB
TAF COR
KANB 162339Z 1700/1724 31003KT P6SM SCT045
     FM170300 31003KT P6SM BKN035
     FM170800 01003KT 5SM BR BKN025
     FM171800 33005KT P6SM SCT250=



000
FTUS44 KBMX 162300
TAFEET
TAF
KEET 162320Z 1700/1724 32003KT P6SM SKC
     FM171300 01003KT P6SM SCT025
     FM171800 33005KT P6SM SCT250=



000
FTUS44 KBMX 162300
TAFMGM
TAF
KMGM 162320Z 1700/1724 28007KT P6SM SKC
     FM170200 30003KT P6SM SKC
     FM171800 31006KT P6SM SKC=



000
FTUS44 KBMX 162300
TAFTCL
TAF
KTCL 162320Z 1700/1724 32003KT P6SM SKC
     FM171300 01003KT P6SM SCT025
     FM171800 33005KT P6SM SCT250=



000
FTUS44 KBMX 162300
TAFANB
TAF
KANB 162320Z 1700/1724 31003KT P6SM SKC
     FM171300 01003KT 5SM BR BKN025
     FM171800 33005KT P6SM SCT250=



000
FTUS44 KBMX 162300
TAFBHM
TAF
KBHM 162320Z 1700/1724 31010KT P6SM SCT045
     FM170200 32003KT P6SM SKC
     FM171300 01003KT 5SM BR BKN025
     FM171800 33005KT P6SM SCT250=



000
FTUS44 KBMX 162300
TAFTOI
TAF
KTOI 162320Z 1700/1724 29010KT P6SM SKC
     FM170200 00000KT P6SM SKC
     FM171800 31006KT P6SM SKC=



    US Dept of Commerce
    National Oceanic and Atmospheric Administration
    National Weather Service
    1325 East West Highway
    Silver Spring, MD 20910
    Page Author: NWS Internet Services Team
Disclaimer
Information Quality
Credits
Glossary
Privacy Policy
Freedom of Information Act (FOIA)
About Us
Career Opportunities